Huvudsida
METAR-TAF:

METAR-TAF

Flygplatser :

Pecs - Pogany Airport

Pécs, Ungern

latitud: 46-06N, longitud: 018-14E, höjd: 201 m

Aktuellt väderrapport

Denna rapport gjordes för 32 minuter sedan, klockan 07:15 UTC
Vind 6 kt från väst/nordväst
Temperatur 3°C
Fuktighet 65%
Tryck 1032 hPa
Sikt 10 km eller mer
Inga moln under 1 500 m eller inga cumulonimbus

METAR: LHPP 220715Z 30006KT CAVOK 03/M03 Q1032

Tid: 08:47 (07:47 UTC)

Väderprognos

Denna rapport gjordes för 2 timmar och 32 minuter sedan, klockan 05:15 UTC
Prognos gäller från 22 kl. 06 UTC till 22 kl. 15 UTC
Vind 2 kt varierande vindriktning
Sikt 10 km eller mer
Inga moln under 1 500 m eller inga cumulonimbus
Blir
från 22 kl. 08 UTC till 22 kl. 11 UTC
Vind 8 kt från sydväst

TAF: LHPP 220515Z 2206/2215 VRB02KT CAVOK BECMG 2208/2211 23008KT

Aktuella väderrapporter och prognoser från 4000 flygplatser (METAR- och TAF-rapporter).

De tillgängliga stationerna syns som gula och röda prickar på kartan.

För musen över prickarna för att se namnen på stationerna.

Klicka sedan för att få väderrapporter och prognoser.

För att ändra kartan: Klicka på de gröna knapparna med ett svart kors på för att zooma in; den gröna knappen med ett streck på för att zooma ut; eller på de gröna pilarna för angränsande kartor.


METAR-TAF: